Terminal Aerodrome Forecast
Issued by NWS

Home | Current Version | Previous Version | Text Only | Print | Product List | Glossary Off
Versions: 1 2 3 4 5 6 7 8 9 10 11 12 13 14 15 16 17 18 19 20 21 22 23 24 25 26 27 28 29

356
FTUS43 KGRB 210520
TAFATW
TAF
KATW 210520Z 2106/2206 21014G21KT P6SM SCT200 WS011/25050KT
     FM210800 24013G19KT P6SM SCT200 WS013/27040KT
     FM211200 26018G28KT P6SM SCT035
     FM211500 29018G28KT P6SM BKN045
     FM212200 31012G20KT P6SM SCT040
     FM220100 31010KT P6SM SKC=

USA.gov is the U.S. government's official web portal to all federal, state and local government web resources and services.